createdAt,value
2023-11-15T00:00:46.609Z,2.72
2023-11-15T00:03:36.048Z,2.53
2023-11-15T00:06:25.573Z,3.08
2023-11-15T00:09:15.019Z,2.08
2023-11-15T00:12:05.056Z,2.20
2023-11-15T00:14:56.099Z,2.75
2023-11-15T00:17:45.782Z,1.95
2023-11-15T00:20:35.575Z,2.60
2023-11-15T00:23:27.723Z,2.78
2023-11-15T00:26:17.090Z,3.33
2023-11-15T00:29:16.066Z,2.63
2023-11-15T00:32:07.916Z,3.05
2023-11-15T00:34:57.275Z,2.63
2023-11-15T00:37:47.207Z,2.95
2023-11-15T00:40:36.621Z,2.75
2023-11-15T00:43:26.150Z,2.38
2023-11-15T00:46:16.846Z,2.75
2023-11-15T00:49:08.151Z,3.10
2023-11-15T00:51:58.004Z,2.25
2023-11-15T00:54:47.363Z,2.63
2023-11-15T00:57:37.688Z,2.65
2023-11-15T01:00:28.264Z,2.38
2023-11-15T01:03:27.516Z,3.03
2023-11-15T01:06:18.430Z,2.80
2023-11-15T01:09:09.488Z,2.80
2023-11-15T01:11:59.007Z,3.83
2023-11-15T01:14:48.419Z,2.90
2023-11-15T01:17:38.030Z,2.78
2023-11-15T01:20:27.502Z,2.70
2023-11-15T01:23:18.482Z,2.92
2023-11-15T01:26:08.437Z,2.03
2023-11-15T01:28:59.098Z,3.25
2023-11-15T01:31:48.461Z,3.53
2023-11-15T01:34:37.821Z,2.58
2023-11-15T01:37:27.140Z,2.75
2023-11-15T01:40:21.151Z,2.40
2023-11-15T01:43:12.506Z,3.30
2023-11-15T01:46:02.247Z,3.35
2023-11-15T01:48:51.764Z,2.53
2023-11-15T01:51:41.159Z,2.17
2023-11-15T01:54:32.161Z,2.88
2023-11-15T01:57:23.046Z,2.65
2023-11-15T02:00:15.246Z,3.17
2023-11-15T02:05:55.898Z,2.70
2023-11-15T02:08:45.484Z,3.92
2023-11-15T02:11:34.936Z,1.95
2023-11-15T02:14:25.874Z,2.45
2023-11-15T02:17:15.594Z,3.03
2023-11-15T02:20:09.905Z,3.40
2023-11-15T02:23:01.936Z,2.65
2023-11-15T02:25:53.372Z,2.40
2023-11-15T02:28:42.712Z,2.97
2023-11-15T02:31:33.265Z,2.78
2023-11-15T02:34:23.204Z,2.05
2023-11-15T02:37:12.645Z,2.72
2023-11-15T02:40:05.834Z,2.20
2023-11-15T02:42:57.694Z,2.75
2023-11-15T02:45:47.468Z,2.53
2023-11-15T02:48:36.918Z,4.18
2023-11-15T02:51:26.836Z,3.30
2023-11-15T02:54:16.807Z,2.75
2023-11-15T02:57:06.813Z,1.92
2023-11-15T02:59:57.584Z,3.22
2023-11-15T03:02:47.359Z,2.38
2023-11-15T03:05:38.170Z,2.80
2023-11-15T03:08:27.847Z,1.98
2023-11-15T03:11:17.462Z,3.42
2023-11-15T03:14:07.016Z,3.28
2023-11-15T03:16:58.111Z,2.83
2023-11-15T03:19:47.714Z,1.80
2023-11-15T03:22:37.189Z,2.47
2023-11-15T03:25:26.573Z,2.38
2023-11-15T03:28:15.851Z,2.25
2023-11-15T03:31:07.248Z,2.38
2023-11-15T03:33:58.113Z,1.90
2023-11-15T03:36:48.195Z,2.45
2023-11-15T03:39:39.037Z,1.70
2023-11-15T03:42:28.372Z,2.00
2023-11-15T03:45:18.415Z,2.20
2023-11-15T03:48:08.434Z,1.70
2023-11-15T03:50:59.924Z,2.20
2023-11-15T03:53:49.234Z,1.67
2023-11-15T03:56:38.536Z,1.60
2023-11-15T03:59:27.942Z,1.90
2023-11-15T04:02:17.968Z,1.65
2023-11-15T04:05:10.959Z,2.45
2023-11-15T04:08:01.675Z,2.05
2023-11-15T04:10:51.436Z,1.98
2023-11-15T04:13:40.984Z,2.22
2023-11-15T04:16:30.368Z,1.63
2023-11-15T04:19:22.471Z,1.58
2023-11-15T04:22:14.168Z,1.50
2023-11-15T04:25:06.275Z,1.47
2023-11-15T04:27:55.978Z,1.90
2023-11-15T04:30:45.379Z,1.70
2023-11-15T04:33:34.833Z,2.15
2023-11-15T04:36:24.620Z,1.65
2023-11-15T04:39:14.613Z,1.83
2023-11-15T04:42:05.774Z,1.40
2023-11-15T04:44:55.205Z,1.45
2023-11-15T04:47:44.584Z,1.80
2023-11-15T04:50:34.136Z,1.70
2023-11-15T04:53:23.457Z,1.63
2023-11-15T04:56:12.849Z,1.35
2023-11-15T04:59:03.734Z,1.63
2023-11-15T05:01:52.994Z,1.80
2023-11-15T05:04:42.360Z,1.38
2023-11-15T05:07:33.964Z,1.33
2023-11-15T05:10:23.488Z,2.58
2023-11-15T05:13:12.838Z,1.88
2023-11-15T05:16:05.103Z,1.05
2023-11-15T05:18:54.450Z,1.67
2023-11-15T05:21:44.745Z,2.15
2023-11-15T05:24:34.339Z,1.75
2023-11-15T05:27:24.059Z,1.80
2023-11-15T05:30:14.537Z,1.73
2023-11-15T05:33:05.624Z,1.55
2023-11-15T05:35:55.008Z,1.33
2023-11-15T05:38:44.381Z,1.85
2023-11-15T05:41:33.808Z,1.35
2023-11-15T05:44:23.168Z,2.28
2023-11-15T05:47:12.584Z,1.90
2023-11-15T05:50:04.110Z,1.42
2023-11-15T05:52:53.973Z,1.63
2023-11-15T05:55:43.645Z,1.77
2023-11-15T05:58:32.943Z,1.60
2023-11-15T06:01:22.477Z,1.80
2023-11-15T06:04:12.006Z,1.55
2023-11-15T06:07:02.878Z,1.48
2023-11-15T06:09:53.166Z,2.03
2023-11-15T06:12:42.828Z,1.65
2023-11-15T06:15:32.187Z,2.35
2023-11-15T06:18:23.161Z,1.40
2023-11-15T06:21:13.325Z,1.30
2023-11-15T06:24:05.870Z,1.30
2023-11-15T06:26:55.176Z,1.20
2023-11-15T06:29:48.996Z,1.88
2023-11-15T06:32:38.503Z,1.27
2023-11-15T06:35:28.059Z,1.95
2023-11-15T06:38:17.491Z,1.40
2023-11-15T06:41:09.933Z,1.73
2023-11-15T06:43:59.278Z,1.52
2023-11-15T06:46:48.732Z,1.58
2023-11-15T06:49:38.420Z,1.90
2023-11-15T06:52:27.770Z,1.77
2023-11-15T06:55:17.187Z,1.55
2023-11-15T06:58:08.623Z,1.40
2023-11-15T07:00:58.066Z,1.48
2023-11-15T07:03:48.163Z,1.85
2023-11-15T07:06:37.643Z,1.77
2023-11-15T07:09:28.513Z,1.98
2023-11-15T07:12:18.521Z,2.58
2023-11-15T07:15:15.799Z,1.35
2023-11-15T07:18:05.482Z,2.35
2023-11-15T07:20:54.968Z,1.70
2023-11-15T07:23:44.455Z,1.85
2023-11-15T07:26:36.668Z,1.70
2023-11-15T07:29:27.652Z,1.27
2023-11-15T07:32:18.773Z,2.22
2023-11-15T07:35:10.189Z,1.70
2023-11-15T07:37:59.582Z,2.00
2023-11-15T07:40:50.101Z,2.03
2023-11-15T07:43:39.522Z,2.22
2023-11-15T07:46:31.755Z,2.33
2023-11-15T07:49:25.104Z,2.20
2023-11-15T07:52:14.472Z,2.53
2023-11-15T07:55:04.498Z,2.40
2023-11-15T07:57:53.862Z,2.72
2023-11-15T08:00:43.330Z,3.20
2023-11-15T08:03:32.916Z,1.63
2023-11-15T08:06:23.736Z,1.15
2023-11-15T08:09:26.084Z,1.80
2023-11-15T08:12:16.294Z,1.65
2023-11-15T08:15:06.702Z,1.77
2023-11-15T08:17:57.641Z,2.25
2023-11-15T08:20:48.199Z,2.60
2023-11-15T08:23:39.635Z,2.20
2023-11-15T08:26:29.058Z,2.53
2023-11-15T08:29:18.786Z,2.33
2023-11-15T08:32:08.573Z,2.67
2023-11-15T08:34:58.135Z,2.17
2023-11-15T08:37:47.449Z,2.33
2023-11-15T08:40:39.270Z,3.05
2023-11-15T08:43:29.054Z,2.63
2023-11-15T08:46:18.719Z,2.03
2023-11-15T08:49:08.310Z,2.58
2023-11-15T08:51:58.854Z,3.15
2023-11-15T08:54:49.425Z,2.22
2023-11-15T08:57:40.210Z,2.47
2023-11-15T09:00:32.820Z,3.03
2023-11-15T09:03:22.485Z,2.80
2023-11-15T09:06:13.228Z,1.40
2023-11-15T09:09:05.390Z,2.17
2023-11-15T09:11:58.365Z,2.10
2023-11-15T09:17:47.980Z,2.40
2023-11-15T09:20:37.762Z,2.70
2023-11-15T09:23:30.709Z,3.33
2023-11-15T09:26:22.074Z,4.18
2023-11-15T09:29:11.417Z,4.95
2023-11-15T09:32:03.115Z,2.50
2023-11-15T09:34:53.316Z,2.55
2023-11-15T09:37:43.851Z,3.97
2023-11-15T09:40:33.532Z,3.10
2023-11-15T09:43:22.912Z,2.95
2023-11-15T09:46:16.690Z,1.70
2023-11-15T09:49:08.925Z,2.20
2023-11-15T09:52:00.479Z,2.28
2023-11-15T09:54:53.309Z,2.72
2023-11-15T10:00:34.441Z,2.30
2023-11-15T10:03:24.081Z,2.47
2023-11-15T10:06:14.820Z,2.70
2023-11-15T10:09:04.233Z,3.20
2023-11-15T10:11:53.544Z,2.33
2023-11-15T10:14:54.391Z,2.45
2023-11-15T10:17:45.261Z,2.67
2023-11-15T10:20:35.494Z,2.30
2023-11-15T10:23:33.641Z,2.38
2023-11-15T10:26:40.210Z,2.55
2023-11-15T10:29:29.592Z,2.35
2023-11-15T10:32:24.393Z,2.40
2023-11-15T10:35:28.869Z,2.80
2023-11-15T10:38:22.786Z,1.88
2023-11-15T10:41:20.503Z,2.63
2023-11-15T10:44:13.959Z,1.70
2023-11-15T10:47:07.198Z,1.92
2023-11-15T10:50:03.437Z,2.42
2023-11-15T10:52:52.929Z,1.92
2023-11-15T10:55:43.199Z,3.13
2023-11-15T10:58:35.321Z,2.53
2023-11-15T11:01:27.401Z,2.10
2023-11-15T11:04:17.583Z,2.47
2023-11-15T11:07:16.528Z,1.70
2023-11-15T11:10:15.991Z,2.60
2023-11-15T11:13:19.633Z,2.03
2023-11-15T11:16:36.268Z,2.15
2023-11-15T11:19:27.400Z,1.98
2023-11-15T11:22:19.157Z,2.13
2023-11-15T11:25:24.267Z,2.63
2023-11-15T11:28:15.247Z,2.00
2023-11-15T11:31:19.559Z,2.30
2023-11-15T11:34:13.852Z,2.20
2023-11-15T11:37:03.472Z,2.10
2023-11-15T11:39:57.232Z,2.85
2023-11-15T11:42:49.358Z,2.75
2023-11-15T11:45:39.487Z,2.10
2023-11-15T11:48:29.968Z,2.53
2023-11-15T11:51:20.797Z,2.70
2023-11-15T11:54:25.002Z,2.28
2023-11-15T11:57:22.900Z,2.78
2023-11-15T12:00:18.943Z,2.50
2023-11-15T12:03:18.177Z,2.35
2023-11-15T12:06:11.084Z,2.50
2023-11-15T12:09:02.042Z,2.30
2023-11-15T12:11:51.613Z,2.70
2023-11-15T12:14:52.930Z,2.33
2023-11-15T12:17:45.463Z,2.47
2023-11-15T12:20:37.714Z,2.10
2023-11-15T12:23:28.057Z,2.10
2023-11-15T12:26:18.782Z,1.95
2023-11-15T12:29:22.356Z,2.10
2023-11-15T12:32:12.089Z,2.03
2023-11-15T12:35:01.574Z,1.90
2023-11-15T12:37:54.168Z,2.33
2023-11-15T12:40:45.805Z,2.28
2023-11-15T12:43:36.798Z,2.67
2023-11-15T12:46:26.283Z,2.20
2023-11-15T12:49:16.916Z,2.03
2023-11-15T12:52:06.950Z,2.03
2023-11-15T12:54:56.781Z,2.00
2023-11-15T12:57:55.117Z,1.88
2023-11-15T13:01:02.406Z,1.80
2023-11-15T13:03:58.277Z,2.40
2023-11-15T13:06:47.805Z,2.22
2023-11-15T13:09:37.137Z,2.40
2023-11-15T13:12:27.855Z,2.15
2023-11-15T13:15:19.528Z,1.95
2023-11-15T13:18:12.425Z,3.05
2023-11-15T13:21:01.836Z,2.13
2023-11-15T13:23:53.515Z,2.72
2023-11-15T13:26:44.678Z,2.05
2023-11-15T13:29:34.182Z,1.83
2023-11-15T13:32:23.905Z,2.20
2023-11-15T13:35:14.737Z,2.10
2023-11-15T13:38:04.444Z,1.95
2023-11-15T13:40:54.238Z,2.00
2023-11-15T13:43:45.910Z,2.58
2023-11-15T13:46:37.029Z,1.73
2023-11-15T13:49:26.491Z,2.10
2023-11-15T13:52:17.809Z,1.70
2023-11-15T13:55:09.679Z,2.47
2023-11-15T13:57:59.099Z,1.90
2023-11-15T14:00:53.328Z,2.00
2023-11-15T14:03:42.791Z,2.10
2023-11-15T14:06:32.642Z,1.80
2023-11-15T14:09:23.718Z,2.63
2023-11-15T14:12:13.602Z,2.00
2023-11-15T14:15:03.161Z,2.60
2023-11-15T14:17:52.643Z,2.15
2023-11-15T14:20:42.070Z,2.10
2023-11-15T14:23:31.402Z,1.92
2023-11-15T14:26:22.289Z,2.22
2023-11-15T14:29:11.688Z,1.67
2023-11-15T14:32:02.253Z,2.30
2023-11-15T14:34:51.522Z,2.08
2023-11-15T14:37:41.800Z,2.67
2023-11-15T14:40:31.942Z,3.33
2023-11-15T14:43:22.878Z,2.55
2023-11-15T14:46:12.265Z,2.50
2023-11-15T14:49:01.793Z,1.63
2023-11-15T14:51:59.994Z,2.15
2023-11-15T14:54:50.456Z,2.78
2023-11-15T14:57:40.256Z,2.30
2023-11-15T15:00:31.055Z,2.03
2023-11-15T15:03:23.235Z,1.88
2023-11-15T15:06:13.940Z,2.38
2023-11-15T15:09:04.801Z,2.15
2023-11-15T15:11:57.420Z,2.42
2023-11-15T15:14:47.917Z,2.30
2023-11-15T15:17:39.220Z,3.17
2023-11-15T15:20:29.033Z,3.40
2023-11-15T15:23:18.502Z,3.80
2023-11-15T15:26:08.648Z,4.30
2023-11-15T15:28:58.117Z,4.72
2023-11-15T15:31:47.554Z,3.05
2023-11-15T15:34:38.685Z,3.63
2023-11-15T15:37:29.465Z,3.97
2023-11-15T15:40:19.633Z,3.90
2023-11-15T15:43:09.242Z,3.72
2023-11-15T15:45:58.847Z,4.40
2023-11-15T15:48:52.408Z,4.25
2023-11-15T15:51:43.322Z,4.47
2023-11-15T15:54:32.772Z,5.57
2023-11-15T15:57:22.406Z,5.13
2023-11-15T16:00:17.384Z,6.88
2023-11-15T16:03:07.430Z,4.97
2023-11-15T16:05:57.367Z,7.72
2023-11-15T16:08:48.474Z,7.88
2023-11-15T16:11:37.819Z,6.35
2023-11-15T16:14:27.301Z,8.38
2023-11-15T16:17:17.039Z,11.82
2023-11-15T16:20:08.832Z,11.75
2023-11-15T16:22:58.819Z,13.90
2023-11-15T16:25:50.089Z,12.43
2023-11-15T16:28:39.709Z,11.50
2023-11-15T16:31:29.117Z,10.55
2023-11-15T16:34:18.679Z,8.25
2023-11-15T16:37:09.958Z,9.05
2023-11-15T16:39:59.989Z,6.85
2023-11-15T16:42:52.424Z,7.57
2023-11-15T16:45:42.428Z,8.30
2023-11-15T16:48:32.882Z,8.95
2023-11-15T16:51:22.777Z,10.20
2023-11-15T16:54:14.482Z,11.35
2023-11-15T16:57:06.433Z,12.32
2023-11-15T16:59:58.714Z,13.43
2023-11-15T17:02:50.839Z,13.43
2023-11-15T17:05:40.610Z,15.47
2023-11-15T17:08:29.956Z,12.07
2023-11-15T17:11:19.701Z,13.10
2023-11-15T17:14:09.254Z,9.88
2023-11-15T17:17:01.250Z,7.80
2023-11-15T17:19:50.594Z,7.75
2023-11-15T17:22:39.916Z,7.63
2023-11-15T17:25:29.282Z,10.13
2023-11-15T17:28:18.648Z,9.27
2023-11-15T17:31:09.265Z,8.35
2023-11-15T17:34:00.101Z,9.18
2023-11-15T17:36:50.063Z,11.05
2023-11-15T17:39:40.829Z,13.93
2023-11-15T17:42:30.283Z,15.38
2023-11-15T17:45:19.880Z,17.65
2023-11-15T17:48:10.362Z,20.15
2023-11-15T17:51:01.846Z,24.23
2023-11-15T17:53:51.307Z,26.63
2023-11-15T17:56:40.630Z,29.52
2023-11-15T17:59:30.086Z,29.52
2023-11-15T18:02:19.560Z,31.17
2023-11-15T18:05:13.588Z,25.90
2023-11-15T18:08:04.911Z,25.73
2023-11-15T18:10:54.382Z,27.17
2023-11-15T18:13:43.698Z,29.88
2023-11-15T18:16:33.113Z,23.05
2023-11-15T18:19:23.077Z,25.63
2023-11-15T18:22:12.505Z,34.75
2023-11-15T18:25:05.466Z,36.40
2023-11-15T18:27:54.932Z,39.13
2023-11-15T18:30:46.395Z,38.83
2023-11-15T18:33:37.401Z,39.63
2023-11-15T18:36:26.937Z,40.75
2023-11-15T18:39:18.051Z,38.40
2023-11-15T18:42:15.203Z,35.75
2023-11-15T18:45:06.229Z,42.90
2023-11-15T18:47:55.672Z,47.13
2023-11-15T18:50:45.420Z,50.70
2023-11-15T18:53:34.855Z,50.75
2023-11-15T18:56:24.929Z,44.00
2023-11-15T18:59:15.697Z,39.38
2023-11-15T19:02:05.696Z,35.08
2023-11-15T19:04:55.427Z,32.40
2023-11-15T19:07:45.616Z,43.63
2023-11-15T19:10:34.935Z,36.65
2023-11-15T19:13:26.395Z,36.58
2023-11-15T19:16:20.057Z,36.20
2023-11-15T19:19:10.766Z,38.65
2023-11-15T19:22:00.490Z,34.42
2023-11-15T19:24:50.309Z,35.58
2023-11-15T19:27:40.348Z,42.30
2023-11-15T19:30:29.782Z,30.77
2023-11-15T19:33:20.885Z,22.30
2023-11-15T19:36:12.182Z,35.05
2023-11-15T19:39:01.738Z,25.67
2023-11-15T19:41:54.495Z,30.00
2023-11-15T19:44:44.349Z,28.23
2023-11-15T19:47:34.796Z,29.25
2023-11-15T19:50:25.609Z,29.08
2023-11-15T19:53:14.993Z,26.33
2023-11-15T19:56:04.914Z,25.70
2023-11-15T19:58:54.248Z,25.42
2023-11-15T20:01:43.924Z,26.40
2023-11-15T20:04:33.380Z,26.13
2023-11-15T20:07:26.972Z,31.13
2023-11-15T20:10:16.601Z,32.78
2023-11-15T20:13:06.807Z,31.50
2023-11-15T20:15:56.449Z,33.40
2023-11-15T20:18:45.893Z,30.60
2023-11-15T20:21:37.235Z,37.30
2023-11-15T20:24:28.123Z,33.58
2023-11-15T20:27:18.544Z,36.22
2023-11-15T20:30:09.739Z,35.00
2023-11-15T20:32:59.173Z,35.10
2023-11-15T20:35:48.526Z,35.53
2023-11-15T20:38:37.843Z,35.67
2023-11-15T20:41:30.360Z,46.67
2023-11-15T20:44:19.817Z,40.78
2023-11-15T20:47:09.519Z,39.10
2023-11-15T20:49:59.015Z,38.47
2023-11-15T20:52:49.821Z,39.33
2023-11-15T20:55:39.526Z,40.67
2023-11-15T20:58:30.666Z,41.97
2023-11-15T21:01:20.170Z,41.88
2023-11-15T21:04:10.300Z,42.55
2023-11-15T21:07:00.222Z,42.15
2023-11-15T21:09:49.726Z,44.75
2023-11-15T21:12:40.187Z,41.95
2023-11-15T21:15:31.523Z,43.85
2023-11-15T21:18:20.987Z,44.05
2023-11-15T21:21:15.571Z,47.38
2023-11-15T21:24:09.179Z,48.83
2023-11-15T21:26:59.631Z,49.28
2023-11-15T21:29:49.267Z,50.88
2023-11-15T21:32:41.520Z,50.03
2023-11-15T21:35:30.961Z,50.17
2023-11-15T21:38:20.428Z,50.70
2023-11-15T21:41:09.790Z,52.90
2023-11-15T21:44:00.687Z,49.10
2023-11-15T21:46:51.967Z,51.38
2023-11-15T21:49:42.797Z,50.60
2023-11-15T21:52:32.442Z,50.65
2023-11-15T21:55:21.861Z,53.45
2023-11-15T21:58:13.517Z,51.47
2023-11-15T22:01:03.152Z,52.10
2023-11-15T22:03:52.713Z,53.33
2023-11-15T22:06:52.531Z,51.67
2023-11-15T22:09:48.944Z,51.97
2023-11-15T22:12:38.334Z,53.50
2023-11-15T22:15:29.576Z,52.95
2023-11-15T22:18:19.020Z,54.65
2023-11-15T22:21:09.466Z,56.95
2023-11-15T22:24:00.264Z,57.05
2023-11-15T22:26:49.805Z,56.63
2023-11-15T22:29:39.178Z,57.22
2023-11-15T22:32:29.150Z,55.70
2023-11-15T22:35:18.531Z,56.38
2023-11-15T22:38:08.776Z,56.80
2023-11-15T22:40:59.626Z,58.83
2023-11-15T22:43:49.827Z,58.58
2023-11-15T22:46:39.360Z,58.88
2023-11-15T22:49:28.793Z,58.45
2023-11-15T22:52:18.217Z,57.97
2023-11-15T22:55:08.955Z,59.30
2023-11-15T22:58:00.697Z,61.17
2023-11-15T23:00:52.386Z,60.38
2023-11-15T23:03:42.953Z,63.45
2023-11-15T23:06:32.452Z,60.10
2023-11-15T23:09:22.065Z,64.15
2023-11-15T23:12:12.836Z,70.53
2023-11-15T23:15:03.660Z,67.80
2023-11-15T23:17:55.393Z,68.55
2023-11-15T23:20:48.371Z,66.75
2023-11-15T23:23:37.835Z,67.22
2023-11-15T23:26:29.016Z,67.03
2023-11-15T23:29:18.471Z,64.45
2023-11-15T23:32:09.741Z,64.93
2023-11-15T23:34:59.147Z,65.13
2023-11-15T23:37:49.335Z,69.43
2023-11-15T23:40:38.733Z,67.63
2023-11-15T23:43:29.740Z,74.57
2023-11-15T23:46:19.315Z,73.57
2023-11-15T23:49:10.088Z,69.60
2023-11-15T23:51:59.544Z,68.75
2023-11-15T23:54:48.818Z,69.28
2023-11-15T23:57:38.232Z,69.90
